createdAt,value
2018-04-24T00:01:44.666Z,14.00
2018-04-24T00:04:13.009Z,14.00
2018-04-24T00:06:40.671Z,14.00
2018-04-24T00:09:08.197Z,13.90
2018-04-24T00:11:35.720Z,13.80
2018-04-24T00:14:04.000Z,13.70
2018-04-24T00:16:32.281Z,13.80
2018-04-24T00:18:59.823Z,13.80
2018-04-24T00:21:28.302Z,13.70
2018-04-24T00:23:56.585Z,13.70
2018-04-24T00:26:24.853Z,13.70
2018-04-24T00:28:53.133Z,13.70
2018-04-24T00:31:21.530Z,13.60
2018-04-24T00:33:52.952Z,13.60
2018-04-24T00:36:21.237Z,13.60
2018-04-24T00:38:49.510Z,13.60
2018-04-24T00:41:17.785Z,13.60
2018-04-24T00:43:46.059Z,13.50
2018-04-24T00:46:14.344Z,13.40
2018-04-24T00:48:42.622Z,13.40
2018-04-24T00:51:11.016Z,13.40
2018-04-24T00:53:40.411Z,13.40
2018-04-24T00:56:07.923Z,13.50
2018-04-24T00:58:35.593Z,13.40
2018-04-24T01:01:03.097Z,13.40
2018-04-24T01:03:31.553Z,13.40
2018-04-24T01:05:59.897Z,13.40
2018-04-24T01:08:27.441Z,13.40
2018-04-24T01:10:55.451Z,13.40
2018-04-24T01:13:23.745Z,13.30
2018-04-24T01:15:52.022Z,13.40
2018-04-24T01:18:20.289Z,13.40
2018-04-24T01:20:48.576Z,13.30
2018-04-24T01:23:16.854Z,13.40
2018-04-24T01:25:45.237Z,13.40
2018-04-24T01:28:13.513Z,13.40
2018-04-24T01:30:41.781Z,13.40
2018-04-24T01:33:10.091Z,13.30
2018-04-24T01:35:37.632Z,13.40
2018-04-24T01:38:05.149Z,13.30
2018-04-24T01:40:32.694Z,13.30
2018-04-24T01:43:00.404Z,13.30
2018-04-24T01:45:29.138Z,13.30
2018-04-24T01:47:56.649Z,13.30
2018-04-24T01:50:25.043Z,13.20
2018-04-24T01:52:52.557Z,13.20
2018-04-24T01:55:20.057Z,13.20
2018-04-24T01:57:47.569Z,13.10
2018-04-24T02:00:15.101Z,13.10
2018-04-24T02:02:42.613Z,13.20
2018-04-24T02:05:10.908Z,13.20
2018-04-24T02:07:38.410Z,13.20
2018-04-24T02:10:05.943Z,13.10
2018-04-24T02:12:33.452Z,13.10
2018-04-24T02:15:02.038Z,12.90
2018-04-24T02:17:30.315Z,12.70
2018-04-24T02:19:58.595Z,12.60
2018-04-24T02:22:26.966Z,12.50
2018-04-24T02:24:55.296Z,12.60
2018-04-24T02:27:24.378Z,12.60
2018-04-24T02:29:51.889Z,12.60
2018-04-24T02:32:19.512Z,12.60
2018-04-24T02:34:48.061Z,12.40
2018-04-24T02:37:16.350Z,12.40
2018-04-24T02:39:44.377Z,12.30
2018-04-24T02:42:11.882Z,12.40
2018-04-24T02:44:39.538Z,12.20
2018-04-24T02:47:07.809Z,12.20
2018-04-24T02:49:36.279Z,12.00
2018-04-24T02:52:04.554Z,12.00
2018-04-24T02:54:32.821Z,12.00
2018-04-24T02:57:00.333Z,12.00
2018-04-24T02:59:27.847Z,12.10
2018-04-24T03:01:56.127Z,12.20
2018-04-24T03:04:24.398Z,12.20
2018-04-24T03:06:52.669Z,12.00
2018-04-24T03:09:20.956Z,11.90
2018-04-24T03:11:49.229Z,11.80
2018-04-24T03:14:17.507Z,11.80
2018-04-24T03:16:46.542Z,11.70
2018-04-24T03:19:14.266Z,11.70
2018-04-24T03:21:42.557Z,11.70
2018-04-24T03:24:10.078Z,11.70
2018-04-24T03:26:37.589Z,11.90
2018-04-24T03:29:05.236Z,11.90
2018-04-24T03:31:32.754Z,11.90
2018-04-24T03:34:00.278Z,11.80
2018-04-24T03:36:27.920Z,11.70
2018-04-24T03:38:55.572Z,11.60
2018-04-24T03:41:23.855Z,11.30
2018-04-24T03:43:51.477Z,11.20
2018-04-24T03:46:20.626Z,11.30
2018-04-24T03:48:48.291Z,11.30
2018-04-24T03:51:15.797Z,11.30
2018-04-24T03:53:44.816Z,11.40
2018-04-24T03:56:13.087Z,11.50
2018-04-24T03:58:41.513Z,11.50
2018-04-24T04:01:09.063Z,11.50
2018-04-24T04:03:36.595Z,11.50
2018-04-24T04:06:04.903Z,11.50
2018-04-24T04:08:32.402Z,11.50
2018-04-24T04:10:59.908Z,11.60
2018-04-24T04:13:28.179Z,11.70
2018-04-24T04:15:55.781Z,11.60
2018-04-24T04:18:35.236Z,11.70
2018-04-24T04:21:14.738Z,11.70
2018-04-24T04:23:54.162Z,11.70
2018-04-24T04:26:21.769Z,11.70
2018-04-24T04:28:50.142Z,11.70
2018-04-24T04:31:17.641Z,11.70
2018-04-24T04:33:45.321Z,11.80
2018-04-24T04:36:12.824Z,11.80
2018-04-24T04:38:40.366Z,11.80
2018-04-24T04:41:07.895Z,11.90
2018-04-24T04:43:35.413Z,11.90
2018-04-24T04:46:02.924Z,11.90
2018-04-24T04:48:30.611Z,11.80
2018-04-24T04:50:58.118Z,11.80
2018-04-24T04:53:25.621Z,11.90
2018-04-24T04:55:53.147Z,11.80
2018-04-24T04:58:20.665Z,11.90
2018-04-24T05:00:48.213Z,11.90
2018-04-24T05:03:15.877Z,12.00
2018-04-24T05:05:44.416Z,12.00
2018-04-24T05:08:11.937Z,12.10
2018-04-24T05:10:40.214Z,12.10
2018-04-24T05:13:08.486Z,12.20
2018-04-24T05:15:36.764Z,12.30
2018-04-24T05:18:05.050Z,12.30
2018-04-24T05:20:33.402Z,12.40
2018-04-24T05:23:00.934Z,12.40
2018-04-24T05:25:28.571Z,12.40
2018-04-24T05:27:56.097Z,12.50
2018-04-24T05:30:24.365Z,12.50
2018-04-24T05:32:51.881Z,12.50
2018-04-24T05:35:19.423Z,12.60
2018-04-24T05:37:46.950Z,12.70
2018-04-24T05:40:15.230Z,12.80
2018-04-24T05:45:18.291Z,13.10
2018-04-24T05:47:45.825Z,13.10
2018-04-24T05:50:13.334Z,13.20
2018-04-24T05:52:41.083Z,13.20
2018-04-24T05:55:08.590Z,13.40
2018-04-24T05:57:36.167Z,13.50
2018-04-24T06:00:03.771Z,13.70
2018-04-24T06:02:31.284Z,13.80
2018-04-24T06:04:58.806Z,13.90
2018-04-24T06:07:27.089Z,14.10
2018-04-24T06:09:55.373Z,14.20
2018-04-24T06:12:23.653Z,14.40
2018-04-24T06:14:51.944Z,14.50
2018-04-24T06:17:19.454Z,14.50
2018-04-24T06:19:47.545Z,14.50
2018-04-24T06:22:16.538Z,14.70
2018-04-24T06:24:44.820Z,14.90
2018-04-24T06:27:13.171Z,15.00
2018-04-24T06:29:40.865Z,15.00
2018-04-24T06:32:09.746Z,15.20
2018-04-24T06:34:38.023Z,15.30
2018-04-24T06:37:06.290Z,15.50
2018-04-24T06:39:34.568Z,15.60
2018-04-24T06:42:02.086Z,15.60
2018-04-24T06:44:29.593Z,15.70
2018-04-24T06:46:57.870Z,16.00
2018-04-24T06:49:26.171Z,16.10
2018-04-24T06:51:53.694Z,16.10
2018-04-24T06:54:21.974Z,16.30
2018-04-24T06:56:50.253Z,16.40
2018-04-24T06:59:18.536Z,16.50
2018-04-24T07:01:46.826Z,16.60
2018-04-24T07:04:14.336Z,16.60
2018-04-24T07:06:41.906Z,16.80
2018-04-24T07:09:09.426Z,16.90
2018-04-24T07:11:36.957Z,17.00
2018-04-24T07:14:05.393Z,17.00
2018-04-24T07:16:32.906Z,17.00
2018-04-24T07:19:01.142Z,17.20
2018-04-24T07:21:28.661Z,17.30
2018-04-24T07:23:56.169Z,17.40
2018-04-24T07:26:24.453Z,17.70
2018-04-24T07:28:52.750Z,17.80
2018-04-24T07:31:20.257Z,17.80
2018-04-24T07:33:49.277Z,18.00
2018-04-24T07:36:17.560Z,18.20
2018-04-24T07:38:45.969Z,18.30
2018-04-24T07:41:13.478Z,18.20
2018-04-24T07:43:42.639Z,18.20
2018-04-24T07:46:10.166Z,18.20
2018-04-24T07:48:38.461Z,18.50
2018-04-24T07:51:06.902Z,18.40
2018-04-24T07:53:35.395Z,18.20
2018-04-24T07:56:04.591Z,18.20
2018-04-24T07:58:32.962Z,18.30
2018-04-24T08:01:01.251Z,18.30
2018-04-24T08:03:29.518Z,18.60
2018-04-24T08:05:57.797Z,19.10
2018-04-24T08:08:26.069Z,19.50
2018-04-24T08:10:54.361Z,19.40
2018-04-24T08:13:22.633Z,19.80
2018-04-24T08:15:50.913Z,20.00
2018-04-24T08:18:19.193Z,19.90
2018-04-24T08:20:47.465Z,19.90
2018-04-24T08:23:15.741Z,19.80
2018-04-24T08:25:44.014Z,19.50
2018-04-24T08:28:12.287Z,19.20
2018-04-24T08:30:41.243Z,19.20
2018-04-24T08:33:08.754Z,19.20
2018-04-24T08:35:36.269Z,19.70
2018-04-24T08:38:03.788Z,19.90
2018-04-24T08:40:32.333Z,20.00
2018-04-24T08:43:00.597Z,20.00
2018-04-24T08:45:28.146Z,19.90
2018-04-24T08:47:55.709Z,19.80
2018-04-24T08:50:23.216Z,19.80
2018-04-24T08:52:50.728Z,19.70
2018-04-24T08:55:18.249Z,19.70
2018-04-24T08:57:46.038Z,19.90
2018-04-24T09:00:13.542Z,20.30
2018-04-24T09:02:41.049Z,20.20
2018-04-24T09:05:08.561Z,20.10
2018-04-24T09:07:36.249Z,20.00
2018-04-24T09:10:03.754Z,20.10
2018-04-24T09:12:31.506Z,20.10
2018-04-24T09:14:59.011Z,20.20
2018-04-24T09:17:27.083Z,20.20
2018-04-24T09:19:54.596Z,20.30
2018-04-24T09:22:23.618Z,20.80
2018-04-24T09:24:52.037Z,20.90
2018-04-24T09:27:19.733Z,20.80
2018-04-24T09:30:03.865Z,21.20
2018-04-24T09:32:31.390Z,21.20
2018-04-24T09:34:58.901Z,21.40
2018-04-24T09:37:27.203Z,21.30
2018-04-24T09:39:54.952Z,21.30
2018-04-24T09:42:23.229Z,20.90
2018-04-24T09:44:51.533Z,20.80
2018-04-24T09:47:19.042Z,20.80
2018-04-24T09:49:46.566Z,20.90
2018-04-24T09:52:14.215Z,20.70
2018-04-24T09:54:41.766Z,21.00
2018-04-24T09:57:09.279Z,21.30
2018-04-24T09:59:36.969Z,21.70
2018-04-24T10:02:05.237Z,22.30
2018-04-24T10:04:33.613Z,22.30
2018-04-24T10:07:01.131Z,22.20
2018-04-24T10:09:28.633Z,22.20
2018-04-24T10:11:56.906Z,22.10
2018-04-24T10:14:25.210Z,22.40
2018-04-24T10:16:52.718Z,22.40
2018-04-24T10:19:20.249Z,23.00
2018-04-24T10:21:47.844Z,23.20
2018-04-24T10:24:16.860Z,22.50
2018-04-24T10:26:45.141Z,22.30
2018-04-24T10:29:13.429Z,22.10
2018-04-24T10:31:40.948Z,22.10
2018-04-24T10:34:08.498Z,22.60
2018-04-24T10:36:36.061Z,22.80
2018-04-24T10:39:03.742Z,22.70
2018-04-24T10:41:31.700Z,23.10
2018-04-24T10:43:59.226Z,23.20
2018-04-24T10:46:26.815Z,22.80
2018-04-24T10:48:54.322Z,23.10
2018-04-24T10:51:21.866Z,23.30
2018-04-24T10:53:50.164Z,22.70
2018-04-24T10:56:17.703Z,22.60
2018-04-24T10:58:46.379Z,21.50
2018-04-24T11:01:14.653Z,21.60
2018-04-24T11:03:42.949Z,21.80
2018-04-24T11:06:11.244Z,22.10
2018-04-24T11:08:38.745Z,22.10
2018-04-24T11:11:06.363Z,22.10
2018-04-24T11:13:33.882Z,21.60
2018-04-24T11:16:02.170Z,21.60
2018-04-24T11:18:30.443Z,21.70
2018-04-24T11:20:58.722Z,21.60
2018-04-24T11:23:27.000Z,21.80
2018-04-24T11:25:55.773Z,21.60
2018-04-24T11:28:24.180Z,21.40
2018-04-24T11:30:51.763Z,21.40
2018-04-24T11:33:19.273Z,21.40
2018-04-24T11:35:48.281Z,21.80
2018-04-24T11:38:17.278Z,22.10
2018-04-24T11:40:45.549Z,22.60
2018-04-24T11:43:13.826Z,22.60
2018-04-24T11:45:42.127Z,22.20
2018-04-24T11:48:09.645Z,22.20
2018-04-24T11:50:37.977Z,22.20
2018-04-24T11:53:06.213Z,21.50
2018-04-24T11:55:34.487Z,21.80
2018-04-24T11:58:02.769Z,22.20
2018-04-24T12:00:31.273Z,22.00
2018-04-24T12:02:58.778Z,22.00
2018-04-24T12:05:26.341Z,21.80
2018-04-24T12:07:53.859Z,21.80
2018-04-24T12:10:21.363Z,21.50
2018-04-24T12:12:50.376Z,21.50
2018-04-24T12:15:18.925Z,21.60
2018-04-24T12:17:46.453Z,21.60
2018-04-24T12:20:13.957Z,22.10
2018-04-24T12:22:41.613Z,22.10
2018-04-24T12:25:09.135Z,21.90
2018-04-24T12:27:36.645Z,22.10
2018-04-24T12:30:05.017Z,22.30
2018-04-24T12:32:32.614Z,22.30
2018-04-24T12:35:00.164Z,22.70
2018-04-24T12:37:27.890Z,22.90
2018-04-24T12:39:55.492Z,22.30
2018-04-24T12:42:22.997Z,22.50
2018-04-24T12:44:50.591Z,22.20
2018-04-24T12:47:18.881Z,21.80
2018-04-24T12:49:46.565Z,21.80
2018-04-24T12:52:14.073Z,22.30
2018-04-24T12:54:41.604Z,22.30
2018-04-24T12:57:09.278Z,22.20
2018-04-24T12:59:36.801Z,22.00
2018-04-24T13:02:04.332Z,22.00
2018-04-24T13:04:33.576Z,21.70
2018-04-24T13:07:01.289Z,21.70
2018-04-24T13:09:29.572Z,21.80
2018-04-24T13:11:57.872Z,21.90
2018-04-24T13:14:25.406Z,21.90
2018-04-24T13:16:52.915Z,21.80
2018-04-24T13:19:20.954Z,22.10
2018-04-24T13:21:48.483Z,22.20
2018-04-24T13:24:16.888Z,22.70
2018-04-24T13:26:44.426Z,22.70
2018-04-24T13:29:12.737Z,22.20
2018-04-24T13:31:40.566Z,22.20
2018-04-24T13:34:09.665Z,23.00
2018-04-24T13:36:37.942Z,23.10
2018-04-24T13:39:06.227Z,22.80
2018-04-24T13:41:35.383Z,22.60
2018-04-24T13:44:03.011Z,22.60
2018-04-24T13:46:30.532Z,22.40
2018-04-24T13:48:58.860Z,22.10
2018-04-24T13:51:26.462Z,22.10
2018-04-24T13:53:54.768Z,22.10
2018-04-24T13:56:22.358Z,22.10
2018-04-24T13:58:49.874Z,22.20
2018-04-24T14:01:18.161Z,22.20
2018-04-24T14:03:45.699Z,22.20
2018-04-24T14:06:13.984Z,21.90
2018-04-24T14:08:42.395Z,21.90
2018-04-24T14:11:09.925Z,21.90
2018-04-24T14:13:38.608Z,22.40
2018-04-24T14:16:06.887Z,22.00
2018-04-24T14:18:35.181Z,22.00
2018-04-24T14:21:02.850Z,22.00
2018-04-24T14:23:30.385Z,22.10
2018-04-24T14:25:58.671Z,22.20
2018-04-24T14:28:26.181Z,22.20
2018-04-24T14:30:53.710Z,22.20
2018-04-24T14:33:21.310Z,22.30
2018-04-24T14:35:48.820Z,22.40
2018-04-24T14:38:16.346Z,22.20
2018-04-24T14:40:45.821Z,22.10
2018-04-24T14:43:13.327Z,22.10
2018-04-24T14:45:40.854Z,22.20
2018-04-24T14:48:08.358Z,22.30
2018-04-24T14:50:36.003Z,22.20
2018-04-24T14:53:03.529Z,22.10
2018-04-24T14:55:31.860Z,22.20
2018-04-24T14:57:59.382Z,22.10
2018-04-24T15:00:27.880Z,22.50
2018-04-24T15:02:56.145Z,22.60
2018-04-24T15:05:24.430Z,22.60
2018-04-24T15:07:51.948Z,22.60
2018-04-24T15:10:19.460Z,22.70
2018-04-24T15:12:47.495Z,22.90
2018-04-24T15:15:15.915Z,22.30
2018-04-24T15:17:43.632Z,22.20
2018-04-24T15:20:11.174Z,22.40
2018-04-24T15:22:38.802Z,22.50
2018-04-24T15:25:06.336Z,22.40
2018-04-24T15:27:34.609Z,22.20
2018-04-24T15:30:02.877Z,22.20
2018-04-24T15:32:30.404Z,22.20
2018-04-24T15:34:57.979Z,22.10
2018-04-24T15:37:26.995Z,22.10
2018-04-24T15:39:55.278Z,22.10
2018-04-24T15:42:23.554Z,22.10
2018-04-24T15:44:51.905Z,22.10
2018-04-24T15:47:19.428Z,22.10
2018-04-24T15:49:46.990Z,22.20
2018-04-24T15:52:14.553Z,22.40
2018-04-24T15:54:42.131Z,22.50
2018-04-24T15:57:09.760Z,22.60
2018-04-24T15:59:37.275Z,22.70
2018-04-24T16:02:05.635Z,22.50
2018-04-24T16:04:33.253Z,22.50
2018-04-24T16:07:00.893Z,22.40
2018-04-24T16:09:28.415Z,22.10
2018-04-24T16:11:55.929Z,21.90
2018-04-24T16:14:23.505Z,21.80
2018-04-24T16:16:51.035Z,21.80
2018-04-24T16:19:18.591Z,21.90
2018-04-24T16:21:46.844Z,22.00
2018-04-24T16:24:15.180Z,21.80
2018-04-24T16:26:42.669Z,21.80
2018-04-24T16:29:10.950Z,21.60
2018-04-24T16:31:39.280Z,21.80
2018-04-24T16:34:07.607Z,21.60
2018-04-24T16:36:35.892Z,21.50
2018-04-24T16:39:04.167Z,21.50
2018-04-24T16:41:32.438Z,21.50
2018-04-24T16:44:00.758Z,21.30
2018-04-24T16:46:28.285Z,21.30
2018-04-24T16:48:56.669Z,21.00
2018-04-24T16:51:24.319Z,21.00
2018-04-24T16:53:53.337Z,21.20
2018-04-24T16:56:21.000Z,21.10
2018-04-24T16:58:48.509Z,21.10
2018-04-24T17:01:16.029Z,20.90
2018-04-24T17:03:43.584Z,20.90
2018-04-24T17:06:11.138Z,20.80
2018-04-24T17:08:39.397Z,20.80
2018-04-24T17:11:07.078Z,20.90
2018-04-24T17:13:34.758Z,20.90
2018-04-24T17:16:02.320Z,20.90
2018-04-24T17:18:29.834Z,20.80
2018-04-24T17:20:58.875Z,20.70
2018-04-24T17:23:26.426Z,20.70
2018-04-24T17:25:54.596Z,20.80
2018-04-24T17:28:22.152Z,20.70
2018-04-24T17:30:49.792Z,20.70
2018-04-24T17:33:17.273Z,20.60
2018-04-24T17:35:45.069Z,20.60
2018-04-24T17:38:12.598Z,20.50
2018-04-24T17:40:40.114Z,20.40
2018-04-24T17:43:08.392Z,20.20
2018-04-24T17:45:37.373Z,20.30
2018-04-24T17:48:04.884Z,20.20
2018-04-24T17:50:32.505Z,20.20
2018-04-24T17:53:00.788Z,20.20
2018-04-24T17:55:29.066Z,20.10
2018-04-24T17:57:56.607Z,20.10
2018-04-24T18:00:24.124Z,20.10
2018-04-24T18:02:51.742Z,20.00
2018-04-24T18:05:20.022Z,19.90
2018-04-24T18:07:48.386Z,19.90
2018-04-24T18:10:16.678Z,19.90
2018-04-24T18:12:44.960Z,19.80
2018-04-24T18:15:12.492Z,19.80
2018-04-24T18:17:40.016Z,19.70
2018-04-24T18:20:07.645Z,19.60
2018-04-24T18:22:35.157Z,19.60
2018-04-24T18:25:02.673Z,19.50
2018-04-24T18:27:30.265Z,19.40
2018-04-24T18:29:58.163Z,19.20
2018-04-24T18:32:26.586Z,19.20
2018-04-24T18:34:54.600Z,19.20
2018-04-24T18:37:22.139Z,19.10
2018-04-24T18:39:49.646Z,19.00
2018-04-24T18:42:17.233Z,18.90
2018-04-24T18:44:45.430Z,18.70
2018-04-24T18:47:13.008Z,18.50
2018-04-24T18:49:41.314Z,18.10
2018-04-24T18:52:09.987Z,18.00
2018-04-24T18:54:38.300Z,17.90
2018-04-24T18:57:05.873Z,17.90
2018-04-24T18:59:33.521Z,17.80
2018-04-24T19:02:01.095Z,17.80
2018-04-24T19:04:28.610Z,17.80
2018-04-24T19:06:56.967Z,17.60
2018-04-24T19:09:24.717Z,17.50
2018-04-24T19:11:52.262Z,17.40
2018-04-24T19:14:25.356Z,17.20
2018-04-24T19:16:52.926Z,17.30
2018-04-24T19:19:26.363Z,17.30
2018-04-24T19:21:53.881Z,17.30
2018-04-24T19:24:27.141Z,17.30
2018-04-24T19:26:55.486Z,17.20
2018-04-24T19:29:23.774Z,17.10
2018-04-24T19:31:57.021Z,17.10
2018-04-24T19:34:24.725Z,17.00
2018-04-24T19:36:53.089Z,17.00
2018-04-24T19:39:27.048Z,17.00
2018-04-24T19:41:54.606Z,17.00
2018-04-24T19:44:22.122Z,16.90
2018-04-24T19:46:50.398Z,16.70
2018-04-24T19:49:25.047Z,16.60
2018-04-24T19:51:53.455Z,16.60
2018-04-24T19:54:21.075Z,16.60
2018-04-24T19:56:49.343Z,16.40
2018-04-24T19:59:17.612Z,16.40
2018-04-24T20:01:45.883Z,16.40
2018-04-24T20:04:13.404Z,16.30
2018-04-24T20:06:40.956Z,16.40
2018-04-24T20:09:08.479Z,16.40
2018-04-24T20:11:36.925Z,16.50
2018-04-24T20:14:05.322Z,16.60
2018-04-24T20:16:34.734Z,16.60
2018-04-24T20:19:03.005Z,16.60
2018-04-24T20:21:31.288Z,16.70
2018-04-24T20:23:59.569Z,16.70
2018-04-24T20:26:27.867Z,16.60
2018-04-24T20:28:55.413Z,16.60
2018-04-24T20:31:23.292Z,16.50
2018-04-24T20:33:51.025Z,16.40
2018-04-24T20:36:19.297Z,16.20
2018-04-24T20:38:47.584Z,16.20
2018-04-24T20:41:15.873Z,16.10
2018-04-24T20:43:43.404Z,16.10
2018-04-24T20:46:10.993Z,16.10
2018-04-24T20:48:38.510Z,16.10
2018-04-24T20:51:06.195Z,16.00
2018-04-24T20:53:34.478Z,15.80
2018-04-24T20:56:03.199Z,15.80
2018-04-24T20:58:30.839Z,15.70
2018-04-24T21:00:58.419Z,15.60
2018-04-24T21:03:26.651Z,15.50
2018-04-24T21:05:54.948Z,15.60
2018-04-24T21:08:23.067Z,15.60
2018-04-24T21:10:50.592Z,15.60
2018-04-24T21:13:18.192Z,15.60
2018-04-24T21:15:46.410Z,15.50
2018-04-24T21:18:14.860Z,15.50
2018-04-24T21:20:43.875Z,15.50
2018-04-24T21:23:12.174Z,15.60
2018-04-24T21:25:39.685Z,15.50
2018-04-24T21:28:07.473Z,15.60
2018-04-24T21:30:35.756Z,15.60
2018-04-24T21:33:04.053Z,15.60
2018-04-24T21:35:31.571Z,15.60
2018-04-24T21:37:59.090Z,15.60
2018-04-24T21:40:26.610Z,15.60
2018-04-24T21:42:54.962Z,15.60
2018-04-24T21:45:22.513Z,15.50
2018-04-24T21:47:50.027Z,15.50
2018-04-24T21:50:19.129Z,15.30
2018-04-24T21:52:46.653Z,15.30
2018-04-24T21:55:14.925Z,15.30
2018-04-24T21:57:43.208Z,15.30
2018-04-24T22:00:15.335Z,15.30
2018-04-24T22:02:42.930Z,15.30
2018-04-24T22:05:11.280Z,15.20
2018-04-24T22:07:38.937Z,15.20
2018-04-24T22:10:06.456Z,15.10
2018-04-24T22:12:34.438Z,15.00
2018-04-24T22:15:02.005Z,14.90
2018-04-24T22:17:29.701Z,14.80
2018-04-24T22:19:57.208Z,14.80
2018-04-24T22:22:25.555Z,14.70
2018-04-24T22:24:53.833Z,14.70
2018-04-24T22:27:22.190Z,14.70
2018-04-24T22:29:50.468Z,14.70
2018-04-24T22:32:18.745Z,14.70
2018-04-24T22:34:47.770Z,14.60
2018-04-24T22:37:16.105Z,14.60
2018-04-24T22:39:43.666Z,14.60
2018-04-24T22:42:11.145Z,14.60
2018-04-24T22:44:39.785Z,14.60
2018-04-24T22:47:07.285Z,14.50
2018-04-24T22:49:35.558Z,14.50
2018-04-24T22:52:03.840Z,14.50
2018-04-24T22:54:32.120Z,14.50
2018-04-24T22:57:01.055Z,14.40
2018-04-24T22:59:28.563Z,14.40
2018-04-24T23:01:56.938Z,14.30
2018-04-24T23:04:25.957Z,14.20
2018-04-24T23:06:54.237Z,14.30
2018-04-24T23:09:21.761Z,14.30
2018-04-24T23:12:01.038Z,14.30
2018-04-24T23:14:40.470Z,14.30
2018-04-24T23:17:19.772Z,14.20
2018-04-24T23:19:59.288Z,14.20
2018-04-24T23:22:30.552Z,14.10
2018-04-24T23:24:58.062Z,14.00
2018-04-24T23:27:25.610Z,14.00
2018-04-24T23:29:53.115Z,14.00
2018-04-24T23:32:20.622Z,14.00
2018-04-24T23:34:48.157Z,14.00
2018-04-24T23:37:16.456Z,13.90
2018-04-24T23:39:44.900Z,13.90
2018-04-24T23:42:12.426Z,13.90
2018-04-24T23:44:39.936Z,13.90
2018-04-24T23:47:08.833Z,13.70
2018-04-24T23:49:37.104Z,13.70
2018-04-24T23:52:05.381Z,13.70
2018-04-24T23:54:33.733Z,13.70
2018-04-24T23:57:01.246Z,13.70
2018-04-24T23:59:28.840Z,13.60
